sensor_id;sensor_type;location;lat;lon;timestamp;P1;durP1;ratioP1;P2;durP2;ratioP2
11046;SDS011;5576;50.008;10.596;2023-07-02T00:00:27;3.63;;;2.50;;
11046;SDS011;5576;50.008;10.596;2023-07-02T00:02:53;2.78;;;2.50;;
11046;SDS011;5576;50.008;10.596;2023-07-02T00:05:19;2.50;;;2.30;;
11046;SDS011;5576;50.008;10.596;2023-07-02T00:07:44;2.58;;;2.38;;
11046;SDS011;5576;50.008;10.596;2023-07-02T00:10:10;2.77;;;2.50;;
11046;SDS011;5576;50.008;10.596;2023-07-02T00:12:36;2.60;;;2.40;;
11046;SDS011;5576;50.008;10.596;2023-07-02T00:15:02;2.67;;;2.40;;
11046;SDS011;5576;50.008;10.596;2023-07-02T00:17:28;3.50;;;2.53;;
11046;SDS011;5576;50.008;10.596;2023-07-02T00:19:54;2.92;;;2.55;;
11046;SDS011;5576;50.008;10.596;2023-07-02T00:22:20;2.70;;;2.45;;
11046;SDS011;5576;50.008;10.596;2023-07-02T00:24:46;4.60;;;4.00;;
11046;SDS011;5576;50.008;10.596;2023-07-02T00:27:12;3.78;;;3.38;;
11046;SDS011;5576;50.008;10.596;2023-07-02T00:29:38;3.10;;;2.80;;
11046;SDS011;5576;50.008;10.596;2023-07-02T00:32:04;2.60;;;2.40;;
11046;SDS011;5576;50.008;10.596;2023-07-02T00:34:30;2.70;;;2.50;;
11046;SDS011;5576;50.008;10.596;2023-07-02T00:36:56;2.60;;;2.40;;
11046;SDS011;5576;50.008;10.596;2023-07-02T00:39:21;2.50;;;2.30;;
11046;SDS011;5576;50.008;10.596;2023-07-02T00:41:47;2.72;;;2.53;;
11046;SDS011;5576;50.008;10.596;2023-07-02T00:44:13;2.47;;;2.28;;
11046;SDS011;5576;50.008;10.596;2023-07-02T00:46:39;2.50;;;2.30;;
11046;SDS011;5576;50.008;10.596;2023-07-02T00:49:05;3.40;;;2.72;;
11046;SDS011;5576;50.008;10.596;2023-07-02T00:51:34;3.72;;;3.20;;
11046;SDS011;5576;50.008;10.596;2023-07-02T00:54:00;2.90;;;2.60;;
11046;SDS011;5576;50.008;10.596;2023-07-02T00:56:26;3.00;;;2.70;;
11046;SDS011;5576;50.008;10.596;2023-07-02T00:58:53;3.10;;;2.80;;
11046;SDS011;5576;50.008;10.596;2023-07-02T01:01:24;2.80;;;2.60;;
11046;SDS011;5576;50.008;10.596;2023-07-02T01:03:53;2.70;;;2.50;;
11046;SDS011;5576;50.008;10.596;2023-07-02T01:06:24;3.30;;;2.70;;
11046;SDS011;5576;50.008;10.596;2023-07-02T01:08:57;2.88;;;2.60;;
11046;SDS011;5576;50.008;10.596;2023-07-02T01:11:28;3.00;;;2.70;;
11046;SDS011;5576;50.008;10.596;2023-07-02T01:13:59;2.67;;;2.47;;
11046;SDS011;5576;50.008;10.596;2023-07-02T01:16:31;2.75;;;2.42;;
11046;SDS011;5576;50.008;10.596;2023-07-02T01:18:58;3.00;;;2.58;;
11046;SDS011;5576;50.008;10.596;2023-07-02T01:21:31;2.90;;;2.60;;
11046;SDS011;5576;50.008;10.596;2023-07-02T01:23:58;6.32;;;4.72;;
11046;SDS011;5576;50.008;10.596;2023-07-02T01:26:27;3.40;;;3.10;;
11046;SDS011;5576;50.008;10.596;2023-07-02T01:28:55;3.00;;;2.70;;
11046;SDS011;5576;50.008;10.596;2023-07-02T01:31:20;3.03;;;2.73;;
11046;SDS011;5576;50.008;10.596;2023-07-02T01:33:50;3.10;;;2.78;;
11046;SDS011;5576;50.008;10.596;2023-07-02T01:36:16;3.33;;;2.70;;
11046;SDS011;5576;50.008;10.596;2023-07-02T01:38:42;2.90;;;2.60;;
11046;SDS011;5576;50.008;10.596;2023-07-02T01:41:08;3.10;;;2.70;;
11046;SDS011;5576;50.008;10.596;2023-07-02T01:43:34;3.17;;;2.73;;
11046;SDS011;5576;50.008;10.596;2023-07-02T01:46:00;3.43;;;2.67;;
11046;SDS011;5576;50.008;10.596;2023-07-02T01:48:26;3.05;;;2.67;;
11046;SDS011;5576;50.008;10.596;2023-07-02T01:50:52;2.88;;;2.65;;
11046;SDS011;5576;50.008;10.596;2023-07-02T01:53:18;3.50;;;2.77;;
11046;SDS011;5576;50.008;10.596;2023-07-02T01:55:44;3.95;;;3.35;;
11046;SDS011;5576;50.008;10.596;2023-07-02T01:58:09;3.20;;;2.90;;
11046;SDS011;5576;50.008;10.596;2023-07-02T02:00:35;2.90;;;2.65;;
11046;SDS011;5576;50.008;10.596;2023-07-02T02:03:01;2.80;;;2.60;;
11046;SDS011;5576;50.008;10.596;2023-07-02T02:05:29;3.42;;;2.78;;
11046;SDS011;5576;50.008;10.596;2023-07-02T02:07:54;3.40;;;2.87;;
11046;SDS011;5576;50.008;10.596;2023-07-02T02:10:21;3.47;;;2.65;;
11046;SDS011;5576;50.008;10.596;2023-07-02T02:12:46;3.20;;;2.90;;
11046;SDS011;5576;50.008;10.596;2023-07-02T02:15:13;3.58;;;2.90;;
11046;SDS011;5576;50.008;10.596;2023-07-02T02:17:39;2.78;;;2.58;;
11046;SDS011;5576;50.008;10.596;2023-07-02T02:20:05;2.70;;;2.50;;
11046;SDS011;5576;50.008;10.596;2023-07-02T02:22:32;3.20;;;2.90;;
11046;SDS011;5576;50.008;10.596;2023-07-02T02:24:58;3.17;;;2.88;;
11046;SDS011;5576;50.008;10.596;2023-07-02T02:27:24;3.30;;;2.73;;
11046;SDS011;5576;50.008;10.596;2023-07-02T02:29:49;2.85;;;2.63;;
11046;SDS011;5576;50.008;10.596;2023-07-02T02:32:15;2.90;;;2.60;;
11046;SDS011;5576;50.008;10.596;2023-07-02T02:34:45;2.88;;;2.67;;
11046;SDS011;5576;50.008;10.596;2023-07-02T02:37:11;3.15;;;2.85;;
11046;SDS011;5576;50.008;10.596;2023-07-02T02:39:37;2.70;;;2.50;;
11046;SDS011;5576;50.008;10.596;2023-07-02T02:42:04;3.10;;;2.80;;
11046;SDS011;5576;50.008;10.596;2023-07-02T02:44:30;3.00;;;2.80;;
11046;SDS011;5576;50.008;10.596;2023-07-02T02:46:58;2.80;;;2.60;;
11046;SDS011;5576;50.008;10.596;2023-07-02T02:49:24;3.20;;;2.90;;
11046;SDS011;5576;50.008;10.596;2023-07-02T02:51:50;2.80;;;2.50;;
11046;SDS011;5576;50.008;10.596;2023-07-02T02:54:16;3.10;;;2.70;;
11046;SDS011;5576;50.008;10.596;2023-07-02T02:56:42;2.50;;;2.30;;
11046;SDS011;5576;50.008;10.596;2023-07-02T02:59:08;3.60;;;2.70;;
11046;SDS011;5576;50.008;10.596;2023-07-02T03:01:34;3.33;;;2.80;;
11046;SDS011;5576;50.008;10.596;2023-07-02T03:03:59;3.60;;;2.85;;
11046;SDS011;5576;50.008;10.596;2023-07-02T03:06:25;3.00;;;2.70;;
11046;SDS011;5576;50.008;10.596;2023-07-02T03:08:51;3.10;;;2.70;;
11046;SDS011;5576;50.008;10.596;2023-07-02T03:11:17;3.53;;;2.87;;
11046;SDS011;5576;50.008;10.596;2023-07-02T03:13:43;3.58;;;2.80;;
11046;SDS011;5576;50.008;10.596;2023-07-02T03:16:08;3.07;;;2.70;;
11046;SDS011;5576;50.008;10.596;2023-07-02T03:18:34;3.28;;;2.97;;
11046;SDS011;5576;50.008;10.596;2023-07-02T03:21:00;3.10;;;2.70;;
11046;SDS011;5576;50.008;10.596;2023-07-02T03:23:26;3.17;;;2.67;;
11046;SDS011;5576;50.008;10.596;2023-07-02T03:25:52;3.10;;;2.80;;
11046;SDS011;5576;50.008;10.596;2023-07-02T03:28:17;3.00;;;2.80;;
11046;SDS011;5576;50.008;10.596;2023-07-02T03:30:43;2.93;;;2.40;;
11046;SDS011;5576;50.008;10.596;2023-07-02T03:33:09;3.88;;;2.60;;
11046;SDS011;5576;50.008;10.596;2023-07-02T03:35:35;2.95;;;2.70;;
11046;SDS011;5576;50.008;10.596;2023-07-02T03:38:01;2.80;;;2.47;;
11046;SDS011;5576;50.008;10.596;2023-07-02T03:40:28;3.15;;;2.45;;
11046;SDS011;5576;50.008;10.596;2023-07-02T03:42:53;2.70;;;2.50;;
11046;SDS011;5576;50.008;10.596;2023-07-02T03:45:19;2.92;;;2.60;;
11046;SDS011;5576;50.008;10.596;2023-07-02T03:47:45;3.27;;;2.70;;
11046;SDS011;5576;50.008;10.596;2023-07-02T03:50:10;3.38;;;2.55;;
11046;SDS011;5576;50.008;10.596;2023-07-02T03:52:36;2.73;;;2.50;;
11046;SDS011;5576;50.008;10.596;2023-07-02T03:55:02;2.70;;;2.30;;
11046;SDS011;5576;50.008;10.596;2023-07-02T03:57:28;3.05;;;2.60;;
11046;SDS011;5576;50.008;10.596;2023-07-02T03:59:54;2.80;;;2.60;;
11046;SDS011;5576;50.008;10.596;2023-07-02T04:02:20;3.20;;;2.60;;
11046;SDS011;5576;50.008;10.596;2023-07-02T04:04:45;3.40;;;2.60;;
11046;SDS011;5576;50.008;10.596;2023-07-02T04:07:11;2.67;;;2.47;;
11046;SDS011;5576;50.008;10.596;2023-07-02T04:09:37;2.47;;;2.20;;
11046;SDS011;5576;50.008;10.596;2023-07-02T04:12:03;3.17;;;2.33;;
11046;SDS011;5576;50.008;10.596;2023-07-02T04:14:29;2.50;;;2.20;;
11046;SDS011;5576;50.008;10.596;2023-07-02T04:16:55;3.60;;;2.40;;
11046;SDS011;5576;50.008;10.596;2023-07-02T04:19:21;2.40;;;2.20;;
11046;SDS011;5576;50.008;10.596;2023-07-02T04:21:47;2.47;;;2.00;;
11046;SDS011;5576;50.008;10.596;2023-07-02T04:24:12;4.78;;;2.40;;
11046;SDS011;5576;50.008;10.596;2023-07-02T04:26:38;2.63;;;2.17;;
11046;SDS011;5576;50.008;10.596;2023-07-02T04:29:09;2.72;;;2.10;;
11046;SDS011;5576;50.008;10.596;2023-07-02T04:31:35;2.85;;;2.03;;
11046;SDS011;5576;50.008;10.596;2023-07-02T04:34:00;3.25;;;2.33;;
11046;SDS011;5576;50.008;10.596;2023-07-02T04:36:26;3.27;;;2.10;;
11046;SDS011;5576;50.008;10.596;2023-07-02T04:38:53;3.63;;;2.20;;
11046;SDS011;5576;50.008;10.596;2023-07-02T04:41:19;2.30;;;2.10;;
11046;SDS011;5576;50.008;10.596;2023-07-02T04:43:45;3.05;;;2.00;;
11046;SDS011;5576;50.008;10.596;2023-07-02T04:46:11;3.03;;;2.17;;
11046;SDS011;5576;50.008;10.596;2023-07-02T04:48:37;3.10;;;2.30;;
11046;SDS011;5576;50.008;10.596;2023-07-02T04:51:03;3.35;;;2.33;;
11046;SDS011;5576;50.008;10.596;2023-07-02T04:53:29;3.90;;;2.27;;
11046;SDS011;5576;50.008;10.596;2023-07-02T04:55:55;3.42;;;2.20;;
11046;SDS011;5576;50.008;10.596;2023-07-02T04:58:22;3.13;;;2.50;;
11046;SDS011;5576;50.008;10.596;2023-07-02T05:00:48;4.03;;;2.40;;
11046;SDS011;5576;50.008;10.596;2023-07-02T05:03:14;3.35;;;2.50;;
11046;SDS011;5576;50.008;10.596;2023-07-02T05:05:39;4.18;;;2.40;;
11046;SDS011;5576;50.008;10.596;2023-07-02T05:08:05;4.25;;;2.60;;
11046;SDS011;5576;50.008;10.596;2023-07-02T05:10:31;4.13;;;3.30;;
11046;SDS011;5576;50.008;10.596;2023-07-02T05:12:57;4.18;;;2.90;;
11046;SDS011;5576;50.008;10.596;2023-07-02T05:15:23;5.10;;;3.07;;
11046;SDS011;5576;50.008;10.596;2023-07-02T05:17:49;4.37;;;3.20;;
11046;SDS011;5576;50.008;10.596;2023-07-02T05:20:15;6.25;;;3.60;;
11046;SDS011;5576;50.008;10.596;2023-07-02T05:22:40;4.70;;;3.20;;
11046;SDS011;5576;50.008;10.596;2023-07-02T05:25:06;6.13;;;3.60;;
11046;SDS011;5576;50.008;10.596;2023-07-02T05:27:32;4.57;;;3.20;;
11046;SDS011;5576;50.008;10.596;2023-07-02T05:29:58;4.55;;;3.42;;
11046;SDS011;5576;50.008;10.596;2023-07-02T05:32:24;5.63;;;3.35;;
11046;SDS011;5576;50.008;10.596;2023-07-02T05:34:50;6.00;;;3.47;;
11046;SDS011;5576;50.008;10.596;2023-07-02T05:37:16;4.40;;;3.33;;
11046;SDS011;5576;50.008;10.596;2023-07-02T05:39:41;5.00;;;3.20;;
11046;SDS011;5576;50.008;10.596;2023-07-02T05:42:07;5.00;;;3.33;;
11046;SDS011;5576;50.008;10.596;2023-07-02T05:44:33;5.53;;;3.40;;
11046;SDS011;5576;50.008;10.596;2023-07-02T05:46:58;5.55;;;3.53;;
11046;SDS011;5576;50.008;10.596;2023-07-02T05:49:24;5.50;;;3.67;;
11046;SDS011;5576;50.008;10.596;2023-07-02T05:51:51;6.57;;;3.58;;
11046;SDS011;5576;50.008;10.596;2023-07-02T05:54:17;6.53;;;3.60;;
11046;SDS011;5576;50.008;10.596;2023-07-02T05:56:43;4.80;;;3.30;;
11046;SDS011;5576;50.008;10.596;2023-07-02T05:59:09;5.63;;;3.80;;
11046;SDS011;5576;50.008;10.596;2023-07-02T06:01:34;5.38;;;3.50;;
11046;SDS011;5576;50.008;10.596;2023-07-02T06:04:01;6.47;;;3.70;;
11046;SDS011;5576;50.008;10.596;2023-07-02T06:06:27;4.82;;;3.65;;
11046;SDS011;5576;50.008;10.596;2023-07-02T06:08:52;5.83;;;3.70;;
11046;SDS011;5576;50.008;10.596;2023-07-02T06:11:18;5.13;;;3.80;;
11046;SDS011;5576;50.008;10.596;2023-07-02T06:13:44;6.47;;;3.90;;
11046;SDS011;5576;50.008;10.596;2023-07-02T06:16:09;6.47;;;3.78;;
11046;SDS011;5576;50.008;10.596;2023-07-02T06:18:35;5.40;;;3.60;;
11046;SDS011;5576;50.008;10.596;2023-07-02T06:21:01;4.75;;;3.80;;
11046;SDS011;5576;50.008;10.596;2023-07-02T06:23:27;5.38;;;3.80;;
11046;SDS011;5576;50.008;10.596;2023-07-02T06:25:54;6.90;;;4.07;;
11046;SDS011;5576;50.008;10.596;2023-07-02T06:28:25;6.00;;;3.87;;
11046;SDS011;5576;50.008;10.596;2023-07-02T06:30:51;5.88;;;4.10;;
11046;SDS011;5576;50.008;10.596;2023-07-02T06:33:17;5.73;;;4.00;;
11046;SDS011;5576;50.008;10.596;2023-07-02T06:35:43;5.32;;;4.10;;
11046;SDS011;5576;50.008;10.596;2023-07-02T06:38:08;5.82;;;4.30;;
11046;SDS011;5576;50.008;10.596;2023-07-02T06:40:34;6.40;;;3.70;;
11046;SDS011;5576;50.008;10.596;2023-07-02T06:43:00;6.07;;;4.20;;
11046;SDS011;5576;50.008;10.596;2023-07-02T06:45:25;6.30;;;4.20;;
11046;SDS011;5576;50.008;10.596;2023-07-02T06:47:51;8.32;;;4.53;;
11046;SDS011;5576;50.008;10.596;2023-07-02T06:50:17;6.28;;;4.18;;
11046;SDS011;5576;50.008;10.596;2023-07-02T06:52:42;6.27;;;4.10;;
11046;SDS011;5576;50.008;10.596;2023-07-02T06:55:08;6.03;;;4.10;;
11046;SDS011;5576;50.008;10.596;2023-07-02T06:57:34;6.60;;;3.90;;
11046;SDS011;5576;50.008;10.596;2023-07-02T07:00:00;7.32;;;4.35;;
11046;SDS011;5576;50.008;10.596;2023-07-02T07:02:26;6.63;;;4.13;;
11046;SDS011;5576;50.008;10.596;2023-07-02T07:04:52;6.63;;;4.22;;
11046;SDS011;5576;50.008;10.596;2023-07-02T07:07:18;6.13;;;4.20;;
11046;SDS011;5576;50.008;10.596;2023-07-02T07:09:44;6.10;;;4.30;;
11046;SDS011;5576;50.008;10.596;2023-07-02T07:12:10;6.45;;;4.22;;
11046;SDS011;5576;50.008;10.596;2023-07-02T07:14:36;6.47;;;4.00;;
11046;SDS011;5576;50.008;10.596;2023-07-02T07:17:01;5.80;;;4.22;;
11046;SDS011;5576;50.008;10.596;2023-07-02T07:19:27;5.72;;;4.32;;
11046;SDS011;5576;50.008;10.596;2023-07-02T07:21:53;6.18;;;4.32;;
11046;SDS011;5576;50.008;10.596;2023-07-02T07:24:19;7.43;;;4.80;;
11046;SDS011;5576;50.008;10.596;2023-07-02T07:26:44;6.85;;;4.88;;
11046;SDS011;5576;50.008;10.596;2023-07-02T07:29:11;6.88;;;4.60;;
11046;SDS011;5576;50.008;10.596;2023-07-02T07:31:36;6.72;;;4.70;;
11046;SDS011;5576;50.008;10.596;2023-07-02T07:34:02;6.40;;;4.47;;
11046;SDS011;5576;50.008;10.596;2023-07-02T07:36:28;6.53;;;5.03;;
11046;SDS011;5576;50.008;10.596;2023-07-02T07:38:53;7.33;;;5.00;;
11046;SDS011;5576;50.008;10.596;2023-07-02T07:41:19;8.00;;;4.78;;
11046;SDS011;5576;50.008;10.596;2023-07-02T07:43:45;6.78;;;4.95;;
11046;SDS011;5576;50.008;10.596;2023-07-02T07:46:10;7.73;;;5.30;;
11046;SDS011;5576;50.008;10.596;2023-07-02T07:48:36;6.85;;;5.03;;
11046;SDS011;5576;50.008;10.596;2023-07-02T07:51:02;6.67;;;5.10;;
11046;SDS011;5576;50.008;10.596;2023-07-02T07:53:28;7.82;;;5.28;;
11046;SDS011;5576;50.008;10.596;2023-07-02T07:55:53;8.57;;;4.93;;
11046;SDS011;5576;50.008;10.596;2023-07-02T07:58:19;6.22;;;5.00;;
11046;SDS011;5576;50.008;10.596;2023-07-02T08:00:45;6.20;;;4.70;;
11046;SDS011;5576;50.008;10.596;2023-07-02T08:03:10;7.33;;;4.77;;
11046;SDS011;5576;50.008;10.596;2023-07-02T08:05:36;6.30;;;4.60;;
11046;SDS011;5576;50.008;10.596;2023-07-02T08:08:02;7.27;;;4.77;;
11046;SDS011;5576;50.008;10.596;2023-07-02T08:10:27;6.20;;;4.70;;
11046;SDS011;5576;50.008;10.596;2023-07-02T08:12:53;8.17;;;4.50;;
11046;SDS011;5576;50.008;10.596;2023-07-02T08:15:19;6.68;;;4.65;;
11046;SDS011;5576;50.008;10.596;2023-07-02T08:17:45;6.95;;;5.03;;
11046;SDS011;5576;50.008;10.596;2023-07-02T08:20:11;6.67;;;4.53;;
11046;SDS011;5576;50.008;10.596;2023-07-02T08:22:37;7.07;;;4.80;;
11046;SDS011;5576;50.008;10.596;2023-07-02T08:25:03;8.55;;;5.10;;
11046;SDS011;5576;50.008;10.596;2023-07-02T08:27:30;6.63;;;4.53;;
11046;SDS011;5576;50.008;10.596;2023-07-02T08:29:55;5.50;;;4.53;;
11046;SDS011;5576;50.008;10.596;2023-07-02T08:32:21;6.77;;;5.03;;
11046;SDS011;5576;50.008;10.596;2023-07-02T08:34:47;5.72;;;4.65;;
11046;SDS011;5576;50.008;10.596;2023-07-02T08:37:12;6.23;;;4.37;;
11046;SDS011;5576;50.008;10.596;2023-07-02T08:39:38;7.18;;;5.00;;
11046;SDS011;5576;50.008;10.596;2023-07-02T08:42:05;7.22;;;4.82;;
11046;SDS011;5576;50.008;10.596;2023-07-02T08:44:31;6.60;;;4.53;;
11046;SDS011;5576;50.008;10.596;2023-07-02T08:46:56;6.37;;;4.47;;
11046;SDS011;5576;50.008;10.596;2023-07-02T08:49:23;6.68;;;5.10;;
11046;SDS011;5576;50.008;10.596;2023-07-02T08:51:49;7.95;;;4.88;;
11046;SDS011;5576;50.008;10.596;2023-07-02T08:54:16;6.75;;;4.75;;
11046;SDS011;5576;50.008;10.596;2023-07-02T08:56:44;8.20;;;5.10;;
11046;SDS011;5576;50.008;10.596;2023-07-02T08:59:11;8.18;;;4.93;;
11046;SDS011;5576;50.008;10.596;2023-07-02T09:01:52;7.73;;;5.30;;
11046;SDS011;5576;50.008;10.596;2023-07-02T09:04:20;7.10;;;5.07;;
11046;SDS011;5576;50.008;10.596;2023-07-02T09:06:48;6.80;;;5.40;;
11046;SDS011;5576;50.008;10.596;2023-07-02T09:09:14;6.90;;;5.13;;
11046;SDS011;5576;50.008;10.596;2023-07-02T09:11:48;6.72;;;4.95;;
11046;SDS011;5576;50.008;10.596;2023-07-02T09:14:31;6.72;;;5.32;;
11046;SDS011;5576;50.008;10.596;2023-07-02T09:17:01;8.13;;;5.07;;
11046;SDS011;5576;50.008;10.596;2023-07-02T09:19:31;7.23;;;4.80;;
11046;SDS011;5576;50.008;10.596;2023-07-02T09:21:58;7.53;;;5.10;;
11046;SDS011;5576;50.008;10.596;2023-07-02T09:24:26;6.47;;;4.82;;
11046;SDS011;5576;50.008;10.596;2023-07-02T09:26:52;6.57;;;5.20;;
11046;SDS011;5576;50.008;10.596;2023-07-02T09:29:24;7.32;;;5.00;;
11046;SDS011;5576;50.008;10.596;2023-07-02T09:31:55;7.32;;;5.47;;
11046;SDS011;5576;50.008;10.596;2023-07-02T09:34:26;7.45;;;5.13;;
11046;SDS011;5576;50.008;10.596;2023-07-02T09:36:53;7.53;;;4.88;;
11046;SDS011;5576;50.008;10.596;2023-07-02T09:39:19;6.57;;;5.13;;
11046;SDS011;5576;50.008;10.596;2023-07-02T09:41:50;7.03;;;5.27;;
11046;SDS011;5576;50.008;10.596;2023-07-02T09:44:16;7.63;;;5.53;;
11046;SDS011;5576;50.008;10.596;2023-07-02T09:46:45;9.13;;;6.15;;
11046;SDS011;5576;50.008;10.596;2023-07-02T09:49:18;8.47;;;5.70;;
11046;SDS011;5576;50.008;10.596;2023-07-02T09:51:45;7.50;;;5.68;;
11046;SDS011;5576;50.008;10.596;2023-07-02T09:54:11;7.23;;;5.30;;
11046;SDS011;5576;50.008;10.596;2023-07-02T09:56:39;7.53;;;4.97;;
11046;SDS011;5576;50.008;10.596;2023-07-02T09:59:05;6.82;;;4.50;;
11046;SDS011;5576;50.008;10.596;2023-07-02T10:01:30;7.05;;;4.90;;
11046;SDS011;5576;50.008;10.596;2023-07-02T10:03:56;7.28;;;5.38;;
11046;SDS011;5576;50.008;10.596;2023-07-02T10:06:22;7.38;;;5.13;;
11046;SDS011;5576;50.008;10.596;2023-07-02T10:08:55;9.02;;;5.30;;
11046;SDS011;5576;50.008;10.596;2023-07-02T10:11:27;7.00;;;5.10;;
11046;SDS011;5576;50.008;10.596;2023-07-02T10:13:59;7.95;;;5.30;;
11046;SDS011;5576;50.008;10.596;2023-07-02T10:16:25;7.50;;;5.70;;
11046;SDS011;5576;50.008;10.596;2023-07-02T10:18:53;7.43;;;5.95;;
11046;SDS011;5576;50.008;10.596;2023-07-02T10:21:19;6.93;;;5.67;;
11046;SDS011;5576;50.008;10.596;2023-07-02T10:23:45;7.05;;;5.40;;
11046;SDS011;5576;50.008;10.596;2023-07-02T10:26:18;5.93;;;4.65;;
11046;SDS011;5576;50.008;10.596;2023-07-02T10:29:00;6.63;;;5.22;;
11046;SDS011;5576;50.008;10.596;2023-07-02T10:31:26;7.60;;;5.78;;
11046;SDS011;5576;50.008;10.596;2023-07-02T10:33:52;7.95;;;5.80;;
11046;SDS011;5576;50.008;10.596;2023-07-02T10:36:19;8.70;;;5.82;;
11046;SDS011;5576;50.008;10.596;2023-07-02T10:38:46;8.60;;;6.40;;
11046;SDS011;5576;50.008;10.596;2023-07-02T10:41:22;7.45;;;5.93;;
11046;SDS011;5576;50.008;10.596;2023-07-02T10:43:49;7.50;;;5.78;;
11046;SDS011;5576;50.008;10.596;2023-07-02T10:46:22;8.07;;;6.00;;
11046;SDS011;5576;50.008;10.596;2023-07-02T10:48:52;10.25;;;6.65;;
11046;SDS011;5576;50.008;10.596;2023-07-02T10:51:18;9.00;;;6.50;;
11046;SDS011;5576;50.008;10.596;2023-07-02T10:53:44;8.43;;;6.07;;
11046;SDS011;5576;50.008;10.596;2023-07-02T10:56:15;8.70;;;5.90;;
11046;SDS011;5576;50.008;10.596;2023-07-02T10:58:41;7.88;;;5.82;;
11046;SDS011;5576;50.008;10.596;2023-07-02T11:01:08;7.88;;;5.85;;
11046;SDS011;5576;50.008;10.596;2023-07-02T11:03:33;7.07;;;4.97;;
11046;SDS011;5576;50.008;10.596;2023-07-02T11:05:59;5.57;;;4.75;;
11046;SDS011;5576;50.008;10.596;2023-07-02T11:08:34;6.90;;;4.83;;
11046;SDS011;5576;50.008;10.596;2023-07-02T11:11:05;7.28;;;5.05;;
11046;SDS011;5576;50.008;10.596;2023-07-02T11:13:32;6.95;;;5.15;;
11046;SDS011;5576;50.008;10.596;2023-07-02T11:15:58;6.93;;;4.87;;
11046;SDS011;5576;50.008;10.596;2023-07-02T11:18:23;8.53;;;5.50;;
11046;SDS011;5576;50.008;10.596;2023-07-02T11:20:49;6.22;;;5.03;;
11046;SDS011;5576;50.008;10.596;2023-07-02T11:23:16;7.73;;;5.30;;
11046;SDS011;5576;50.008;10.596;2023-07-02T11:25:53;8.27;;;5.47;;
11046;SDS011;5576;50.008;10.596;2023-07-02T11:28:22;7.82;;;5.28;;
11046;SDS011;5576;50.008;10.596;2023-07-02T11:30:48;7.10;;;5.10;;
11046;SDS011;5576;50.008;10.596;2023-07-02T11:33:14;7.85;;;5.45;;
11046;SDS011;5576;50.008;10.596;2023-07-02T11:35:39;6.03;;;4.77;;
11046;SDS011;5576;50.008;10.596;2023-07-02T11:38:05;6.57;;;4.72;;
11046;SDS011;5576;50.008;10.596;2023-07-02T11:40:32;6.35;;;4.80;;
11046;SDS011;5576;50.008;10.596;2023-07-02T11:42:57;6.70;;;4.77;;
11046;SDS011;5576;50.008;10.596;2023-07-02T11:45:23;6.53;;;4.70;;
11046;SDS011;5576;50.008;10.596;2023-07-02T11:47:48;7.55;;;5.35;;
11046;SDS011;5576;50.008;10.596;2023-07-02T11:50:14;8.17;;;5.27;;
11046;SDS011;5576;50.008;10.596;2023-07-02T11:52:40;9.40;;;5.75;;
11046;SDS011;5576;50.008;10.596;2023-07-02T11:55:06;7.32;;;5.63;;
11046;SDS011;5576;50.008;10.596;2023-07-02T11:57:32;8.30;;;6.18;;
11046;SDS011;5576;50.008;10.596;2023-07-02T11:59:57;7.15;;;5.70;;
11046;SDS011;5576;50.008;10.596;2023-07-02T12:02:25;8.13;;;5.60;;
11046;SDS011;5576;50.008;10.596;2023-07-02T12:04:50;7.53;;;5.43;;
11046;SDS011;5576;50.008;10.596;2023-07-02T12:07:16;8.57;;;5.30;;
11046;SDS011;5576;50.008;10.596;2023-07-02T12:09:42;8.48;;;5.28;;
11046;SDS011;5576;50.008;10.596;2023-07-02T12:12:08;8.10;;;5.40;;
11046;SDS011;5576;50.008;10.596;2023-07-02T12:14:33;7.45;;;5.55;;
11046;SDS011;5576;50.008;10.596;2023-07-02T12:16:59;7.97;;;5.88;;
11046;SDS011;5576;50.008;10.596;2023-07-02T12:19:25;8.55;;;5.85;;
11046;SDS011;5576;50.008;10.596;2023-07-02T12:21:51;8.97;;;6.00;;
11046;SDS011;5576;50.008;10.596;2023-07-02T12:24:16;7.78;;;5.57;;
11046;SDS011;5576;50.008;10.596;2023-07-02T12:26:42;8.32;;;5.50;;
11046;SDS011;5576;50.008;10.596;2023-07-02T12:29:08;7.80;;;5.95;;
11046;SDS011;5576;50.008;10.596;2023-07-02T12:31:34;8.70;;;5.70;;
11046;SDS011;5576;50.008;10.596;2023-07-02T12:34:01;7.93;;;5.78;;
11046;SDS011;5576;50.008;10.596;2023-07-02T12:36:28;8.10;;;5.57;;
11046;SDS011;5576;50.008;10.596;2023-07-02T12:38:53;8.00;;;6.10;;
11046;SDS011;5576;50.008;10.596;2023-07-02T12:41:19;7.70;;;5.95;;
11046;SDS011;5576;50.008;10.596;2023-07-02T12:43:45;8.50;;;5.75;;
11046;SDS011;5576;50.008;10.596;2023-07-02T12:46:10;7.60;;;5.80;;
11046;SDS011;5576;50.008;10.596;2023-07-02T12:48:36;7.22;;;5.82;;
11046;SDS011;5576;50.008;10.596;2023-07-02T12:51:02;7.57;;;5.70;;
11046;SDS011;5576;50.008;10.596;2023-07-02T12:53:27;7.37;;;5.80;;
11046;SDS011;5576;50.008;10.596;2023-07-02T12:55:53;8.05;;;5.65;;
11046;SDS011;5576;50.008;10.596;2023-07-02T12:58:20;7.00;;;5.60;;
11046;SDS011;5576;50.008;10.596;2023-07-02T13:00:46;8.25;;;5.60;;
11046;SDS011;5576;50.008;10.596;2023-07-02T13:03:12;9.00;;;6.10;;
11046;SDS011;5576;50.008;10.596;2023-07-02T13:05:39;7.38;;;5.53;;
11046;SDS011;5576;50.008;10.596;2023-07-02T13:08:05;7.70;;;5.63;;
11046;SDS011;5576;50.008;10.596;2023-07-02T13:10:32;7.78;;;5.60;;
11046;SDS011;5576;50.008;10.596;2023-07-02T13:12:58;7.03;;;5.72;;
11046;SDS011;5576;50.008;10.596;2023-07-02T13:15:25;7.13;;;5.90;;
11046;SDS011;5576;50.008;10.596;2023-07-02T13:17:51;7.15;;;5.60;;
11046;SDS011;5576;50.008;10.596;2023-07-02T13:20:16;8.10;;;6.10;;
11046;SDS011;5576;50.008;10.596;2023-07-02T13:22:42;7.72;;;6.13;;
11046;SDS011;5576;50.008;10.596;2023-07-02T13:25:08;7.30;;;5.97;;
11046;SDS011;5576;50.008;10.596;2023-07-02T13:27:34;9.50;;;6.63;;
11046;SDS011;5576;50.008;10.596;2023-07-02T13:29:59;8.27;;;5.97;;
11046;SDS011;5576;50.008;10.596;2023-07-02T13:32:25;7.25;;;6.15;;
11046;SDS011;5576;50.008;10.596;2023-07-02T13:34:51;8.50;;;6.23;;
11046;SDS011;5576;50.008;10.596;2023-07-02T13:37:17;9.50;;;6.25;;
11046;SDS011;5576;50.008;10.596;2023-07-02T13:39:44;8.07;;;6.13;;
11046;SDS011;5576;50.008;10.596;2023-07-02T13:42:10;8.52;;;6.10;;
11046;SDS011;5576;50.008;10.596;2023-07-02T13:44:36;8.20;;;6.47;;
11046;SDS011;5576;50.008;10.596;2023-07-02T13:47:02;7.33;;;6.10;;
11046;SDS011;5576;50.008;10.596;2023-07-02T13:49:28;9.05;;;6.70;;
11046;SDS011;5576;50.008;10.596;2023-07-02T13:51:53;9.20;;;6.70;;
11046;SDS011;5576;50.008;10.596;2023-07-02T13:54:19;7.90;;;6.60;;
11046;SDS011;5576;50.008;10.596;2023-07-02T13:56:45;8.90;;;6.43;;
11046;SDS011;5576;50.008;10.596;2023-07-02T13:59:12;9.77;;;6.40;;
11046;SDS011;5576;50.008;10.596;2023-07-02T14:01:38;9.68;;;6.72;;
11046;SDS011;5576;50.008;10.596;2023-07-02T14:04:04;8.97;;;6.63;;
11046;SDS011;5576;50.008;10.596;2023-07-02T14:06:30;8.68;;;6.63;;
11046;SDS011;5576;50.008;10.596;2023-07-02T14:08:56;8.83;;;6.30;;
11046;SDS011;5576;50.008;10.596;2023-07-02T14:11:22;8.65;;;6.80;;
11046;SDS011;5576;50.008;10.596;2023-07-02T14:13:49;9.03;;;6.60;;
11046;SDS011;5576;50.008;10.596;2023-07-02T14:16:15;9.15;;;6.72;;
11046;SDS011;5576;50.008;10.596;2023-07-02T14:18:41;9.77;;;7.10;;
11046;SDS011;5576;50.008;10.596;2023-07-02T14:21:07;9.60;;;6.88;;
11046;SDS011;5576;50.008;10.596;2023-07-02T14:23:32;9.35;;;7.30;;
11046;SDS011;5576;50.008;10.596;2023-07-02T14:25:58;10.73;;;7.43;;
11046;SDS011;5576;50.008;10.596;2023-07-02T14:28:24;10.03;;;7.30;;
11046;SDS011;5576;50.008;10.596;2023-07-02T14:30:58;9.38;;;7.32;;
11046;SDS011;5576;50.008;10.596;2023-07-02T14:33:25;9.53;;;6.80;;
11046;SDS011;5576;50.008;10.596;2023-07-02T14:35:52;9.88;;;7.18;;
11046;SDS011;5576;50.008;10.596;2023-07-02T14:38:18;9.40;;;7.13;;
11046;SDS011;5576;50.008;10.596;2023-07-02T14:40:44;10.40;;;7.70;;
11046;SDS011;5576;50.008;10.596;2023-07-02T14:43:10;12.02;;;8.02;;